sensor_id;sensor_type;location;lat;lon;timestamp;P1;durP1;ratioP1;P2;durP2;ratioP2
35745;SDS011;21870;42.812;74.628;2022-12-18T00:02:07;51.50;;;37.67;;
35745;SDS011;21870;42.812;74.628;2022-12-18T00:04:40;56.90;;;40.33;;
35745;SDS011;21870;42.812;74.628;2022-12-18T00:07:06;58.15;;;40.03;;
35745;SDS011;21870;42.812;74.628;2022-12-18T00:09:32;69.50;;;41.63;;
35745;SDS011;21870;42.812;74.628;2022-12-18T00:11:58;58.15;;;39.53;;
35745;SDS011;21870;42.812;74.628;2022-12-18T00:14:24;60.00;;;39.83;;
35745;SDS011;21870;42.812;74.628;2022-12-18T00:16:50;51.92;;;38.17;;
35745;SDS011;21870;42.812;74.628;2022-12-18T00:19:17;48.30;;;35.72;;
35745;SDS011;21870;42.812;74.628;2022-12-18T00:21:43;43.58;;;33.65;;
35745;SDS011;21870;42.812;74.628;2022-12-18T00:24:09;42.13;;;30.13;;
35745;SDS011;21870;42.812;74.628;2022-12-18T00:26:39;35.38;;;25.67;;
35745;SDS011;21870;42.812;74.628;2022-12-18T00:29:12;40.67;;;30.15;;
35745;SDS011;21870;42.812;74.628;2022-12-18T00:31:39;41.33;;;28.25;;
35745;SDS011;21870;42.812;74.628;2022-12-18T00:34:08;37.00;;;28.02;;
35745;SDS011;21870;42.812;74.628;2022-12-18T00:36:37;33.63;;;27.50;;
35745;SDS011;21870;42.812;74.628;2022-12-18T00:39:04;41.78;;;32.53;;
35745;SDS011;21870;42.812;74.628;2022-12-18T00:41:30;38.17;;;29.83;;
35745;SDS011;21870;42.812;74.628;2022-12-18T00:44:16;42.38;;;29.70;;
35745;SDS011;21870;42.812;74.628;2022-12-18T00:46:43;39.15;;;28.88;;
35745;SDS011;21870;42.812;74.628;2022-12-18T00:49:10;39.33;;;28.42;;
35745;SDS011;21870;42.812;74.628;2022-12-18T00:51:36;37.38;;;27.52;;
35745;SDS011;21870;42.812;74.628;2022-12-18T00:54:03;36.15;;;28.35;;
35745;SDS011;21870;42.812;74.628;2022-12-18T00:56:29;43.10;;;30.05;;
35745;SDS011;21870;42.812;74.628;2022-12-18T00:58:55;37.10;;;27.90;;
35745;SDS011;21870;42.812;74.628;2022-12-18T01:01:21;42.30;;;29.90;;
35745;SDS011;21870;42.812;74.628;2022-12-18T01:03:47;41.83;;;30.52;;
35745;SDS011;21870;42.812;74.628;2022-12-18T01:06:14;42.95;;;29.42;;
35745;SDS011;21870;42.812;74.628;2022-12-18T01:08:41;40.65;;;27.63;;
35745;SDS011;21870;42.812;74.628;2022-12-18T01:11:15;40.00;;;28.88;;
35745;SDS011;21870;42.812;74.628;2022-12-18T01:13:45;41.25;;;28.45;;
35745;SDS011;21870;42.812;74.628;2022-12-18T01:16:12;45.90;;;32.17;;
35745;SDS011;21870;42.812;74.628;2022-12-18T01:18:40;47.08;;;35.58;;
35745;SDS011;21870;42.812;74.628;2022-12-18T01:21:10;48.70;;;33.70;;
35745;SDS011;21870;42.812;74.628;2022-12-18T01:23:39;47.72;;;35.20;;
35745;SDS011;21870;42.812;74.628;2022-12-18T01:26:09;48.75;;;33.72;;
35745;SDS011;21870;42.812;74.628;2022-12-18T01:28:37;55.15;;;37.83;;
35745;SDS011;21870;42.812;74.628;2022-12-18T01:31:14;60.83;;;43.85;;
35745;SDS011;21870;42.812;74.628;2022-12-18T01:33:41;68.97;;;47.70;;
35745;SDS011;21870;42.812;74.628;2022-12-18T01:36:13;72.30;;;51.50;;
35745;SDS011;21870;42.812;74.628;2022-12-18T01:38:44;72.00;;;49.83;;
35745;SDS011;21870;42.812;74.628;2022-12-18T01:41:11;73.28;;;51.70;;
35745;SDS011;21870;42.812;74.628;2022-12-18T01:43:44;70.70;;;52.10;;
35745;SDS011;21870;42.812;74.628;2022-12-18T01:46:24;70.93;;;51.88;;
35745;SDS011;21870;42.812;74.628;2022-12-18T01:49:01;70.97;;;50.13;;
35745;SDS011;21870;42.812;74.628;2022-12-18T01:51:27;77.65;;;53.58;;
35745;SDS011;21870;42.812;74.628;2022-12-18T01:53:55;79.22;;;53.75;;
35745;SDS011;21870;42.812;74.628;2022-12-18T01:56:22;74.25;;;54.22;;
35745;SDS011;21870;42.812;74.628;2022-12-18T01:59:01;78.78;;;54.40;;
35745;SDS011;21870;42.812;74.628;2022-12-18T02:01:31;85.03;;;57.53;;
35745;SDS011;21870;42.812;74.628;2022-12-18T02:09:45;87.30;;;59.88;;
35745;SDS011;21870;42.812;74.628;2022-12-18T02:12:24;96.57;;;64.30;;
35745;SDS011;21870;42.812;74.628;2022-12-18T02:15:07;108.85;;;74.15;;
35745;SDS011;21870;42.812;74.628;2022-12-18T02:17:52;104.07;;;69.55;;
35745;SDS011;21870;42.812;74.628;2022-12-18T02:20:25;94.18;;;64.80;;
35745;SDS011;21870;42.812;74.628;2022-12-18T02:28:38;103.97;;;66.68;;
35745;SDS011;21870;42.812;74.628;2022-12-18T02:31:11;106.20;;;68.93;;
35745;SDS011;21870;42.812;74.628;2022-12-18T02:33:41;105.30;;;68.30;;
35745;SDS011;21870;42.812;74.628;2022-12-18T02:36:10;102.13;;;64.60;;
35745;SDS011;21870;42.812;74.628;2022-12-18T02:38:40;101.40;;;67.97;;
35745;SDS011;21870;42.812;74.628;2022-12-18T02:41:07;103.93;;;69.50;;
35745;SDS011;21870;42.812;74.628;2022-12-18T02:43:33;118.10;;;77.22;;
35745;SDS011;21870;42.812;74.628;2022-12-18T02:46:00;120.38;;;84.07;;
35745;SDS011;21870;42.812;74.628;2022-12-18T02:48:47;120.70;;;80.60;;
35745;SDS011;21870;42.812;74.628;2022-12-18T02:51:29;114.10;;;75.50;;
35745;SDS011;21870;42.812;74.628;2022-12-18T02:54:10;100.25;;;67.32;;
35745;SDS011;21870;42.812;74.628;2022-12-18T02:57:11;93.35;;;60.78;;
35745;SDS011;21870;42.812;74.628;2022-12-18T02:59:49;98.43;;;70.60;;
35745;SDS011;21870;42.812;74.628;2022-12-18T03:02:42;105.60;;;72.93;;
35745;SDS011;21870;42.812;74.628;2022-12-18T03:05:30;113.22;;;77.40;;
35745;SDS011;21870;42.812;74.628;2022-12-18T03:08:24;115.82;;;75.95;;
35745;SDS011;21870;42.812;74.628;2022-12-18T03:11:03;120.57;;;83.07;;
35745;SDS011;21870;42.812;74.628;2022-12-18T03:16:09;104.30;;;72.53;;
35745;SDS011;21870;42.812;74.628;2022-12-18T03:21:07;92.15;;;62.50;;
35745;SDS011;21870;42.812;74.628;2022-12-18T03:23:40;91.68;;;62.17;;
35745;SDS011;21870;42.812;74.628;2022-12-18T03:26:13;87.60;;;60.58;;
35745;SDS011;21870;42.812;74.628;2022-12-18T03:28:44;88.97;;;62.22;;
35745;SDS011;21870;42.812;74.628;2022-12-18T03:31:14;84.65;;;69.80;;
35745;SDS011;21870;42.812;74.628;2022-12-18T03:33:46;83.05;;;61.25;;
35745;SDS011;21870;42.812;74.628;2022-12-18T03:36:20;83.10;;;58.63;;
35745;SDS011;21870;42.812;74.628;2022-12-18T03:38:47;85.20;;;57.92;;
35745;SDS011;21870;42.812;74.628;2022-12-18T03:44:00;72.18;;;49.22;;
35745;SDS011;21870;42.812;74.628;2022-12-18T03:47:07;78.03;;;55.20;;
35745;SDS011;21870;42.812;74.628;2022-12-18T03:49:34;81.82;;;56.75;;
35745;SDS011;21870;42.812;74.628;2022-12-18T03:52:05;98.78;;;69.93;;
35745;SDS011;21870;42.812;74.628;2022-12-18T03:54:36;103.45;;;73.13;;
35745;SDS011;21870;42.812;74.628;2022-12-18T03:57:09;112.07;;;74.05;;
35745;SDS011;21870;42.812;74.628;2022-12-18T03:59:43;91.20;;;57.40;;
35745;SDS011;21870;42.812;74.628;2022-12-18T04:02:11;75.82;;;53.67;;
35745;SDS011;21870;42.812;74.628;2022-12-18T04:04:40;89.85;;;59.67;;
35745;SDS011;21870;42.812;74.628;2022-12-18T04:07:08;80.88;;;56.60;;
35745;SDS011;21870;42.812;74.628;2022-12-18T04:09:38;72.18;;;52.85;;
35745;SDS011;21870;42.812;74.628;2022-12-18T04:12:06;82.93;;;53.83;;
35745;SDS011;21870;42.812;74.628;2022-12-18T04:14:34;82.28;;;56.63;;
35745;SDS011;21870;42.812;74.628;2022-12-18T04:17:01;70.85;;;53.78;;
35745;SDS011;21870;42.812;74.628;2022-12-18T04:19:28;85.20;;;57.67;;
35745;SDS011;21870;42.812;74.628;2022-12-18T04:21:54;83.50;;;57.78;;
35745;SDS011;21870;42.812;74.628;2022-12-18T04:24:20;82.68;;;58.65;;
35745;SDS011;21870;42.812;74.628;2022-12-18T04:26:46;94.35;;;62.90;;
35745;SDS011;21870;42.812;74.628;2022-12-18T04:29:12;90.18;;;65.38;;
35745;SDS011;21870;42.812;74.628;2022-12-18T04:31:38;103.90;;;71.80;;
35745;SDS011;21870;42.812;74.628;2022-12-18T04:34:04;100.68;;;69.75;;
35745;SDS011;21870;42.812;74.628;2022-12-18T04:36:30;99.95;;;70.45;;
35745;SDS011;21870;42.812;74.628;2022-12-18T04:38:56;108.63;;;69.80;;
35745;SDS011;21870;42.812;74.628;2022-12-18T04:41:22;103.82;;;72.50;;
35745;SDS011;21870;42.812;74.628;2022-12-18T04:43:48;100.00;;;71.47;;
35745;SDS011;21870;42.812;74.628;2022-12-18T04:46:14;103.38;;;71.22;;
35745;SDS011;21870;42.812;74.628;2022-12-18T04:48:41;94.50;;;66.90;;
35745;SDS011;21870;42.812;74.628;2022-12-18T04:51:07;99.05;;;66.35;;
35745;SDS011;21870;42.812;74.628;2022-12-18T04:53:33;91.03;;;66.28;;
35745;SDS011;21870;42.812;74.628;2022-12-18T04:56:06;91.82;;;65.20;;
35745;SDS011;21870;42.812;74.628;2022-12-18T04:58:37;89.28;;;65.22;;
35745;SDS011;21870;42.812;74.628;2022-12-18T05:01:04;79.35;;;57.97;;
35745;SDS011;21870;42.812;74.628;2022-12-18T05:03:32;81.20;;;60.25;;
35745;SDS011;21870;42.812;74.628;2022-12-18T05:05:58;82.45;;;59.70;;
35745;SDS011;21870;42.812;74.628;2022-12-18T05:08:25;86.45;;;62.00;;
35745;SDS011;21870;42.812;74.628;2022-12-18T05:11:04;86.47;;;60.90;;
35745;SDS011;21870;42.812;74.628;2022-12-18T05:13:35;68.15;;;49.08;;
35745;SDS011;21870;42.812;74.628;2022-12-18T05:16:01;75.72;;;53.70;;
35745;SDS011;21870;42.812;74.628;2022-12-18T05:18:28;72.32;;;55.88;;
35745;SDS011;21870;42.812;74.628;2022-12-18T05:20:54;69.97;;;51.92;;
35745;SDS011;21870;42.812;74.628;2022-12-18T05:23:21;72.93;;;53.72;;
35745;SDS011;21870;42.812;74.628;2022-12-18T05:25:51;74.50;;;52.85;;
35745;SDS011;21870;42.812;74.628;2022-12-18T05:28:21;82.72;;;56.42;;
35745;SDS011;21870;42.812;74.628;2022-12-18T05:30:52;71.18;;;55.10;;
35745;SDS011;21870;42.812;74.628;2022-12-18T05:33:21;82.78;;;57.38;;
35745;SDS011;21870;42.812;74.628;2022-12-18T05:35:52;91.50;;;63.17;;
35745;SDS011;21870;42.812;74.628;2022-12-18T05:38:22;97.20;;;65.45;;
35745;SDS011;21870;42.812;74.628;2022-12-18T05:40:50;96.28;;;69.15;;
35745;SDS011;21870;42.812;74.628;2022-12-18T05:43:17;96.45;;;69.25;;
35745;SDS011;21870;42.812;74.628;2022-12-18T05:45:44;93.72;;;69.38;;
35745;SDS011;21870;42.812;74.628;2022-12-18T05:48:10;90.22;;;66.93;;
35745;SDS011;21870;42.812;74.628;2022-12-18T05:50:37;94.40;;;65.88;;
35745;SDS011;21870;42.812;74.628;2022-12-18T05:53:05;99.43;;;66.60;;
35745;SDS011;21870;42.812;74.628;2022-12-18T05:55:32;84.97;;;62.30;;
35745;SDS011;21870;42.812;74.628;2022-12-18T05:58:02;86.57;;;63.17;;
35745;SDS011;21870;42.812;74.628;2022-12-18T06:00:29;90.30;;;64.88;;
35745;SDS011;21870;42.812;74.628;2022-12-18T06:02:57;78.13;;;60.22;;
35745;SDS011;21870;42.812;74.628;2022-12-18T06:05:24;74.07;;;57.42;;
35745;SDS011;21870;42.812;74.628;2022-12-18T06:07:50;76.35;;;62.00;;
35745;SDS011;21870;42.812;74.628;2022-12-18T06:10:16;93.88;;;62.38;;
35745;SDS011;21870;42.812;74.628;2022-12-18T06:12:42;79.40;;;62.63;;
35745;SDS011;21870;42.812;74.628;2022-12-18T06:15:09;83.40;;;63.38;;
35745;SDS011;21870;42.812;74.628;2022-12-18T06:17:35;77.53;;;59.47;;
35745;SDS011;21870;42.812;74.628;2022-12-18T06:20:02;72.72;;;54.58;;
35745;SDS011;21870;42.812;74.628;2022-12-18T06:22:32;75.63;;;54.67;;
35745;SDS011;21870;42.812;74.628;2022-12-18T06:25:00;75.45;;;53.53;;
35745;SDS011;21870;42.812;74.628;2022-12-18T06:27:26;77.80;;;58.97;;
35745;SDS011;21870;42.812;74.628;2022-12-18T06:29:52;83.15;;;59.10;;
35745;SDS011;21870;42.812;74.628;2022-12-18T06:32:21;77.55;;;60.55;;
35745;SDS011;21870;42.812;74.628;2022-12-18T06:34:47;83.72;;;58.63;;
35745;SDS011;21870;42.812;74.628;2022-12-18T06:37:13;71.18;;;54.38;;
35745;SDS011;21870;42.812;74.628;2022-12-18T06:39:39;74.75;;;58.17;;
35745;SDS011;21870;42.812;74.628;2022-12-18T06:42:05;89.97;;;67.25;;
35745;SDS011;21870;42.812;74.628;2022-12-18T06:44:31;91.63;;;68.40;;
35745;SDS011;21870;42.812;74.628;2022-12-18T06:46:57;88.93;;;66.88;;
35745;SDS011;21870;42.812;74.628;2022-12-18T06:49:23;89.40;;;66.35;;
35745;SDS011;21870;42.812;74.628;2022-12-18T06:51:49;76.80;;;61.25;;
35745;SDS011;21870;42.812;74.628;2022-12-18T06:54:15;86.20;;;63.28;;
35745;SDS011;21870;42.812;74.628;2022-12-18T06:56:41;84.38;;;63.72;;
35745;SDS011;21870;42.812;74.628;2022-12-18T06:59:09;81.13;;;62.10;;
35745;SDS011;21870;42.812;74.628;2022-12-18T07:01:35;79.03;;;63.33;;
35745;SDS011;21870;42.812;74.628;2022-12-18T07:04:01;85.55;;;62.65;;
35745;SDS011;21870;42.812;74.628;2022-12-18T07:06:27;78.60;;;62.70;;
35745;SDS011;21870;42.812;74.628;2022-12-18T07:08:54;87.15;;;63.90;;
35745;SDS011;21870;42.812;74.628;2022-12-18T07:11:20;77.68;;;62.00;;
35745;SDS011;21870;42.812;74.628;2022-12-18T07:13:47;83.05;;;62.28;;
35745;SDS011;21870;42.812;74.628;2022-12-18T07:16:14;79.38;;;61.97;;
35745;SDS011;21870;42.812;74.628;2022-12-18T07:18:46;81.93;;;60.17;;
35745;SDS011;21870;42.812;74.628;2022-12-18T07:21:14;78.70;;;61.30;;
35745;SDS011;21870;42.812;74.628;2022-12-18T07:23:42;85.53;;;62.58;;
35745;SDS011;21870;42.812;74.628;2022-12-18T07:26:10;83.57;;;62.10;;
35745;SDS011;21870;42.812;74.628;2022-12-18T07:28:38;79.28;;;63.72;;
35745;SDS011;21870;42.812;74.628;2022-12-18T07:31:06;93.95;;;63.72;;
35745;SDS011;21870;42.812;74.628;2022-12-18T07:33:34;90.00;;;65.20;;
35745;SDS011;21870;42.812;74.628;2022-12-18T07:36:01;82.55;;;63.92;;
35745;SDS011;21870;42.812;74.628;2022-12-18T07:38:28;79.40;;;63.85;;
35745;SDS011;21870;42.812;74.628;2022-12-18T07:40:59;90.45;;;65.88;;
35745;SDS011;21870;42.812;74.628;2022-12-18T07:43:26;76.22;;;61.22;;
35745;SDS011;21870;42.812;74.628;2022-12-18T07:45:52;72.22;;;61.78;;
35745;SDS011;21870;42.812;74.628;2022-12-18T07:48:18;89.03;;;63.80;;
35745;SDS011;21870;42.812;74.628;2022-12-18T07:50:44;82.40;;;65.57;;
35745;SDS011;21870;42.812;74.628;2022-12-18T07:53:11;80.97;;;61.45;;
35745;SDS011;21870;42.812;74.628;2022-12-18T07:55:37;85.28;;;62.40;;
35745;SDS011;21870;42.812;74.628;2022-12-18T07:58:03;78.28;;;57.75;;
35745;SDS011;21870;42.812;74.628;2022-12-18T08:00:30;76.72;;;56.65;;
35745;SDS011;21870;42.812;74.628;2022-12-18T08:02:56;78.32;;;58.00;;
35745;SDS011;21870;42.812;74.628;2022-12-18T08:05:22;82.00;;;54.42;;
35745;SDS011;21870;42.812;74.628;2022-12-18T08:07:48;77.55;;;55.33;;
35745;SDS011;21870;42.812;74.628;2022-12-18T08:10:15;69.68;;;53.47;;
35745;SDS011;21870;42.812;74.628;2022-12-18T08:12:41;85.05;;;57.80;;
35745;SDS011;21870;42.812;74.628;2022-12-18T08:15:08;81.78;;;57.58;;
35745;SDS011;21870;42.812;74.628;2022-12-18T08:17:34;79.50;;;59.08;;
35745;SDS011;21870;42.812;74.628;2022-12-18T08:20:00;84.38;;;61.10;;
35745;SDS011;21870;42.812;74.628;2022-12-18T08:22:26;91.45;;;63.55;;
35745;SDS011;21870;42.812;74.628;2022-12-18T08:24:52;78.75;;;61.33;;
35745;SDS011;21870;42.812;74.628;2022-12-18T08:27:18;79.25;;;59.50;;
35745;SDS011;21870;42.812;74.628;2022-12-18T08:29:44;84.05;;;61.78;;
35745;SDS011;21870;42.812;74.628;2022-12-18T08:32:11;87.75;;;62.15;;
35745;SDS011;21870;42.812;74.628;2022-12-18T08:34:37;100.00;;;68.35;;
35745;SDS011;21870;42.812;74.628;2022-12-18T08:37:03;174.93;;;133.13;;
35745;SDS011;21870;42.812;74.628;2022-12-18T08:39:29;211.95;;;153.45;;
35745;SDS011;21870;42.812;74.628;2022-12-18T08:41:55;219.48;;;160.88;;
35745;SDS011;21870;42.812;74.628;2022-12-18T08:44:39;226.63;;;167.40;;
35745;SDS011;21870;42.812;74.628;2022-12-18T08:47:06;236.93;;;176.82;;
35745;SDS011;21870;42.812;74.628;2022-12-18T08:49:33;236.48;;;172.05;;
35745;SDS011;21870;42.812;74.628;2022-12-18T08:52:00;198.30;;;140.05;;
35745;SDS011;21870;42.812;74.628;2022-12-18T08:54:28;227.35;;;156.52;;
35745;SDS011;21870;42.812;74.628;2022-12-18T08:56:54;239.10;;;175.65;;
35745;SDS011;21870;42.812;74.628;2022-12-18T08:59:20;264.80;;;186.00;;
35745;SDS011;21870;42.812;74.628;2022-12-18T09:01:46;249.38;;;178.82;;
35745;SDS011;21870;42.812;74.628;2022-12-18T09:04:13;236.48;;;168.57;;
35745;SDS011;21870;42.812;74.628;2022-12-18T09:06:40;233.10;;;157.75;;
35745;SDS011;21870;42.812;74.628;2022-12-18T09:09:06;233.95;;;167.02;;
35745;SDS011;21870;42.812;74.628;2022-12-18T09:11:32;223.32;;;156.10;;
35745;SDS011;21870;42.812;74.628;2022-12-18T09:13:59;219.98;;;162.00;;
35745;SDS011;21870;42.812;74.628;2022-12-18T09:16:27;217.50;;;158.10;;
35745;SDS011;21870;42.812;74.628;2022-12-18T09:18:54;226.77;;;166.40;;
35745;SDS011;21870;42.812;74.628;2022-12-18T09:21:25;238.50;;;172.32;;
35745;SDS011;21870;42.812;74.628;2022-12-18T09:24:00;216.60;;;159.55;;
35745;SDS011;21870;42.812;74.628;2022-12-18T09:26:27;233.95;;;166.90;;
35745;SDS011;21870;42.812;74.628;2022-12-18T09:28:53;209.82;;;161.13;;
35745;SDS011;21870;42.812;74.628;2022-12-18T09:31:21;219.45;;;160.43;;
35745;SDS011;21870;42.812;74.628;2022-12-18T09:33:48;222.40;;;159.38;;
35745;SDS011;21870;42.812;74.628;2022-12-18T09:36:15;237.75;;;160.80;;
35745;SDS011;21870;42.812;74.628;2022-12-18T09:38:42;218.02;;;155.75;;
35745;SDS011;21870;42.812;74.628;2022-12-18T09:43:55;228.98;;;157.70;;
35745;SDS011;21870;42.812;74.628;2022-12-18T09:46:36;224.05;;;159.05;;
35745;SDS011;21870;42.812;74.628;2022-12-18T09:49:07;226.70;;;156.50;;
35745;SDS011;21870;42.812;74.628;2022-12-18T09:51:52;250.45;;;164.07;;
35745;SDS011;21870;42.812;74.628;2022-12-18T09:54:24;277.05;;;176.68;;
35745;SDS011;21870;42.812;74.628;2022-12-18T09:56:55;276.65;;;172.63;;
35745;SDS011;21870;42.812;74.628;2022-12-18T09:59:32;265.85;;;168.93;;
35745;SDS011;21870;42.812;74.628;2022-12-18T10:02:23;291.50;;;170.25;;
35745;SDS011;21870;42.812;74.628;2022-12-18T10:05:02;281.23;;;166.68;;
35745;SDS011;21870;42.812;74.628;2022-12-18T10:10:38;245.88;;;157.45;;
35745;SDS011;21870;42.812;74.628;2022-12-18T10:15:50;258.25;;;161.00;;
35745;SDS011;21870;42.812;74.628;2022-12-18T10:18:50;273.17;;;167.23;;
35745;SDS011;21870;42.812;74.628;2022-12-18T10:21:28;251.88;;;158.45;;
35745;SDS011;21870;42.812;74.628;2022-12-18T10:24:14;265.92;;;163.90;;
35745;SDS011;21870;42.812;74.628;2022-12-18T10:27:12;246.73;;;164.45;;
35745;SDS011;21870;42.812;74.628;2022-12-18T10:29:42;267.77;;;166.80;;
35745;SDS011;21870;42.812;74.628;2022-12-18T10:32:12;262.80;;;159.63;;
35745;SDS011;21870;42.812;74.628;2022-12-18T10:34:47;262.75;;;174.20;;
35745;SDS011;21870;42.812;74.628;2022-12-18T10:37:18;259.58;;;173.10;;
35745;SDS011;21870;42.812;74.628;2022-12-18T10:39:47;269.05;;;177.98;;
35745;SDS011;21870;42.812;74.628;2022-12-18T10:42:41;284.30;;;177.27;;
35745;SDS011;21870;42.812;74.628;2022-12-18T10:45:13;276.60;;;184.93;;
35745;SDS011;21870;42.812;74.628;2022-12-18T10:47:44;284.52;;;187.80;;
35745;SDS011;21870;42.812;74.628;2022-12-18T10:50:19;272.38;;;184.80;;
35745;SDS011;21870;42.812;74.628;2022-12-18T10:52:54;286.60;;;193.05;;
35745;SDS011;21870;42.812;74.628;2022-12-18T10:55:26;280.55;;;185.85;;
35745;SDS011;21870;42.812;74.628;2022-12-18T10:58:01;278.33;;;187.57;;
35745;SDS011;21870;42.812;74.628;2022-12-18T11:01:05;273.98;;;187.63;;
35745;SDS011;21870;42.812;74.628;2022-12-18T11:06:24;260.27;;;176.43;;
35745;SDS011;21870;42.812;74.628;2022-12-18T11:08:58;241.25;;;175.25;;
35745;SDS011;21870;42.812;74.628;2022-12-18T11:11:26;275.20;;;196.40;;
35745;SDS011;21870;42.812;74.628;2022-12-18T11:14:00;270.20;;;192.77;;
35745;SDS011;21870;42.812;74.628;2022-12-18T11:16:29;279.83;;;186.95;;
35745;SDS011;21870;42.812;74.628;2022-12-18T11:22:02;271.23;;;193.07;;
35745;SDS011;21870;42.812;74.628;2022-12-18T11:24:49;270.27;;;196.02;;
35745;SDS011;21870;42.812;74.628;2022-12-18T11:27:21;266.75;;;187.30;;
35745;SDS011;21870;42.812;74.628;2022-12-18T11:29:49;276.33;;;190.63;;
35745;SDS011;21870;42.812;74.628;2022-12-18T11:37:49;263.40;;;189.55;;
35745;SDS011;21870;42.812;74.628;2022-12-18T11:40:27;273.80;;;195.20;;
35745;SDS011;21870;42.812;74.628;2022-12-18T11:45:43;275.00;;;201.80;;
35745;SDS011;21870;42.812;74.628;2022-12-18T11:53:20;278.08;;;194.77;;
35745;SDS011;21870;42.812;74.628;2022-12-18T12:01:13;274.95;;;189.75;;
35745;SDS011;21870;42.812;74.628;2022-12-18T12:06:39;282.33;;;197.52;;
35745;SDS011;21870;42.812;74.628;2022-12-18T12:09:22;296.65;;;196.77;;
35745;SDS011;21870;42.812;74.628;2022-12-18T12:12:25;305.98;;;201.60;;
35745;SDS011;21870;42.812;74.628;2022-12-18T12:15:17;314.83;;;210.02;;
35745;SDS011;21870;42.812;74.628;2022-12-18T12:28:06;327.90;;;216.35;;
35745;SDS011;21870;42.812;74.628;2022-12-18T12:36:13;285.45;;;202.88;;
35745;SDS011;21870;42.812;74.628;2022-12-18T12:38:51;288.63;;;196.77;;
35745;SDS011;21870;42.812;74.628;2022-12-18T12:41:27;276.60;;;189.35;;
35745;SDS011;21870;42.812;74.628;2022-12-18T12:44:20;280.17;;;196.63;;
35745;SDS011;21870;42.812;74.628;2022-12-18T12:46:50;300.35;;;214.77;;
35745;SDS011;21870;42.812;74.628;2022-12-18T12:49:21;297.88;;;205.30;;
35745;SDS011;21870;42.812;74.628;2022-12-18T12:52:03;295.52;;;201.10;;
35745;SDS011;21870;42.812;74.628;2022-12-18T12:54:35;285.98;;;195.10;;
35745;SDS011;21870;42.812;74.628;2022-12-18T12:57:06;274.92;;;189.43;;
35745;SDS011;21870;42.812;74.628;2022-12-18T13:08:02;292.35;;;205.63;;
35745;SDS011;21870;42.812;74.628;2022-12-18T13:10:37;284.63;;;202.48;;
35745;SDS011;21870;42.812;74.628;2022-12-18T13:13:07;306.15;;;216.02;;
35745;SDS011;21870;42.812;74.628;2022-12-18T13:15:45;309.33;;;207.10;;
35745;SDS011;21870;42.812;74.628;2022-12-18T13:20:48;288.08;;;203.18;;
35745;SDS011;21870;42.812;74.628;2022-12-18T13:25:52;297.40;;;206.73;;
35745;SDS011;21870;42.812;74.628;2022-12-18T13:28:24;323.02;;;220.90;;
35745;SDS011;21870;42.812;74.628;2022-12-18T13:31:15;323.77;;;228.93;;
35745;SDS011;21870;42.812;74.628;2022-12-18T13:34:16;318.40;;;221.20;;
35745;SDS011;21870;42.812;74.628;2022-12-18T13:36:42;291.75;;;206.10;;
35745;SDS011;21870;42.812;74.628;2022-12-18T13:41:45;334.27;;;242.32;;
35745;SDS011;21870;42.812;74.628;2022-12-18T13:47:50;344.50;;;249.77;;
35745;SDS011;21870;42.812;74.628;2022-12-18T13:49:59;332.23;;;237.82;;
35745;SDS011;21870;42.812;74.628;2022-12-18T13:52:34;333.27;;;244.57;;
35745;SDS011;21870;42.812;74.628;2022-12-18T13:55:05;304.83;;;221.48;;
35745;SDS011;21870;42.812;74.628;2022-12-18T13:57:39;301.10;;;220.20;;
35745;SDS011;21870;42.812;74.628;2022-12-18T14:00:19;316.98;;;234.40;;
35745;SDS011;21870;42.812;74.628;2022-12-18T14:02:50;326.60;;;233.00;;
35745;SDS011;21870;42.812;74.628;2022-12-18T14:05:22;336.90;;;243.23;;
35745;SDS011;21870;42.812;74.628;2022-12-18T14:07:50;335.65;;;249.00;;
35745;SDS011;21870;42.812;74.628;2022-12-18T14:10:18;336.13;;;241.48;;
35745;SDS011;21870;42.812;74.628;2022-12-18T14:12:49;332.92;;;244.65;;
35745;SDS011;21870;42.812;74.628;2022-12-18T14:20:22;299.60;;;215.82;;
35745;SDS011;21870;42.812;74.628;2022-12-18T14:22:50;284.35;;;201.95;;
35745;SDS011;21870;42.812;74.628;2022-12-18T14:25:18;283.95;;;195.07;;
35745;SDS011;21870;42.812;74.628;2022-12-18T14:30:32;244.85;;;174.48;;
35745;SDS011;21870;42.812;74.628;2022-12-18T14:35:37;230.05;;;150.73;;
35745;SDS011;21870;42.812;74.628;2022-12-18T14:40:57;241.52;;;165.68;;
35745;SDS011;21870;42.812;74.628;2022-12-18T14:43:34;226.60;;;154.50;;
35745;SDS011;21870;42.812;74.628;2022-12-18T14:46:02;225.85;;;155.85;;
35745;SDS011;21870;42.812;74.628;2022-12-18T14:48:40;224.18;;;158.57;;
35745;SDS011;21870;42.812;74.628;2022-12-18T14:54:03;230.00;;;155.63;;
35745;SDS011;21870;42.812;74.628;2022-12-18T14:56:35;211.63;;;146.18;;
35745;SDS011;21870;42.812;74.628;2022-12-18T15:01:46;242.60;;;159.25;;
35745;SDS011;21870;42.812;74.628;2022-12-18T15:07:05;252.55;;;166.98;;
35745;SDS011;21870;42.812;74.628;2022-12-18T15:09:40;276.30;;;180.13;;
35745;SDS011;21870;42.812;74.628;2022-12-18T15:12:26;307.67;;;203.88;;
35745;SDS011;21870;42.812;74.628;2022-12-18T15:15:03;331.80;;;220.70;;
35745;SDS011;21870;42.812;74.628;2022-12-18T15:18:03;304.35;;;199.05;;
35745;SDS011;21870;42.812;74.628;2022-12-18T15:20:32;318.17;;;200.30;;
35745;SDS011;21870;42.812;74.628;2022-12-18T15:34:01;291.98;;;181.98;;
35745;SDS011;21870;42.812;74.628;2022-12-18T15:36:33;304.40;;;196.60;;
35745;SDS011;21870;42.812;74.628;2022-12-18T15:39:05;281.08;;;178.75;;
35745;SDS011;21870;42.812;74.628;2022-12-18T15:41:36;294.00;;;179.30;;
35745;SDS011;21870;42.812;74.628;2022-12-18T15:44:25;276.92;;;177.15;;
35745;SDS011;21870;42.812;74.628;2022-12-18T15:46:52;269.45;;;171.90;;
35745;SDS011;21870;42.812;74.628;2022-12-18T15:49:18;268.48;;;173.77;;
35745;SDS011;21870;42.812;74.628;2022-12-18T15:51:48;263.52;;;176.50;;
35745;SDS011;21870;42.812;74.628;2022-12-18T15:54:22;248.15;;;159.70;;
35745;SDS011;21870;42.812;74.628;2022-12-18T15:57:12;263.30;;;167.77;;
35745;SDS011;21870;42.812;74.628;2022-12-18T15:59:49;256.15;;;161.38;;
35745;SDS011;21870;42.812;74.628;2022-12-18T16:02:17;261.35;;;163.95;;
35745;SDS011;21870;42.812;74.628;2022-12-18T16:04:44;244.32;;;155.38;;
35745;SDS011;21870;42.812;74.628;2022-12-18T16:07:11;235.70;;;152.55;;
35745;SDS011;21870;42.812;74.628;2022-12-18T16:09:37;224.70;;;149.13;;
35745;SDS011;21870;42.812;74.628;2022-12-18T16:12:04;249.05;;;163.45;;
35745;SDS011;21870;42.812;74.628;2022-12-18T16:14:32;312.13;;;208.05;;
35745;SDS011;21870;42.812;74.628;2022-12-18T16:17:00;296.00;;;200.60;;
35745;SDS011;21870;42.812;74.628;2022-12-18T16:19:28;276.83;;;183.52;;
35745;SDS011;21870;42.812;74.628;2022-12-18T16:21:55;264.02;;;179.85;;
35745;SDS011;21870;42.812;74.628;2022-12-18T16:24:24;259.02;;;168.10;;